Albury
Weather
Information

and Archive.
Albury Local Internet Skycam This service provided and funded by Albury Local Internet

Help keep our weatherstation running:

Lavington Weatherstation live data - Conditions of Use

Last updated on 28-Jul-2017 at 16:47:03
Temperature
  Currently 11.0 degrees C
  Apparent Temperature ("Wind Chill") is 5.0 degrees C
  Today has ranged from  6.2 at 07:42 to 13.6 at 15:10
  Yesterday ranged from  3.5 at 01:57 to 16.1 at 14:11
Wind
  Now:   10.1kmh, gusting to  12.6kmh from 284 degrees (WNW)
  Hour:  10.8kmh, gusting to  21.6kmh
Rainfall
   1.2mm Midnight to Midnight (ie, yesterday)
   2.0mm Since Midnight (ie, so far today)
   3.0mm 9am yesterday to 9am today
  85.8mm Total this month
Misc items
  Relative humidity is  0%
  Dewpoint is nan deg C
  Estimated Cloudbase is nan feet
  Barometric Pressure is 1021.0 mbar
  Solar Insolation: 79 W/m^2
  There should be 613 W/m^2 available to a tracking array
  The sun is 7.4 degrees above the horizon bearing 299.9 degrees.
  UV Index: 0.4 () *NEW*
Top Solar flares in the last 24 hours

Last 24 hours Temperature Graph (click graph for history)
temperature

Last 24 hours Dynamic Wind display (click image for 4-hour image):
Wind Rose

Current Yarrawonga Weather Radar and Infrared Satellite Images from the BOM.

Hourly summaries in the tables below are cumulative and peak values
for the preceding hour, and instantaneous values at the hour.
So far today, 28-Jul-2017
Time   Barom.  Wind + Gust    Direction   RH   Rain    Temp.  Minimum    Maximum
01:00  1017.0  10.3  20.9kmh  328 (NNW)    0%  1.0mm    7.7   7.1@00:00  7.7@00:25
02:00  1016.0  13.6  24.5kmh   33 (NNE)    0%  1.0mm    7.4   7.3@01:36  7.7@01:00
03:00  1015.0  14.8  29.2kmh  334 (NNW)    0%  0.0mm    8.0   7.4@02:00  7.9@02:33
04:00  1015.0  17.5  28.4kmh  351 ( N )    0%  0.0mm    7.7   7.7@03:43  8.2@03:17
05:00  1016.0  16.2  31.3kmh  327 (NNW)    0%  0.0mm    7.3   7.3@04:53  7.9@04:12
06:00  1017.0  13.4  24.8kmh  239 (WSW)    0%  0.0mm    7.1   7.1@05:58  7.5@05:05
07:00  1017.0  13.4  23.0kmh  197 (SSW)    0%  0.0mm    6.7   6.7@06:46  7.2@06:03
08:00  1018.0  11.6  21.6kmh  192 (SSW)    0%  0.0mm    6.3   6.2@07:42  6.9@07:04
09:00  1019.0   9.3  16.2kmh  226 ( SW)    0%  0.0mm    7.6   6.3@08:00  7.6@08:56
10:00  1020.0  10.6  20.9kmh  223 ( SW)    0%  0.0mm    8.8   7.6@09:00  8.8@09:56
11:00  1020.0  11.0  21.6kmh  205 (SSW)    0%  0.0mm   10.3   8.7@10:02 10.2@10:58
12:00  1020.0  10.5  19.4kmh  276 ( W )    0%  0.0mm   12.5  10.2@11:28 12.4@11:58
13:00  1020.0  10.5  19.4kmh  223 ( SW)    0%  0.0mm   12.4  10.8@12:33 12.8@12:02
14:00  1020.0  10.7  20.9kmh  212 (SSW)    0%  0.0mm   11.8  11.4@13:51 13.4@13:40
15:00  1020.0   9.6  16.9kmh  254 (WSW)    0%  0.0mm   12.4  11.3@14:31 13.0@14:56
16:00  1020.0  10.9  19.4kmh  263 ( W )    0%  0.0mm   12.5  10.9@15:40 13.6@15:10
16:47  1021.0  10.8  21.6kmh  290 (WNW)    0%  0.0mm   11.0  11.0@16:39 12.7@16:09


Summary for yesterday, 27-Jul-2017
Time   Barom.  Wind + Gust    Direction   RH   Rain    Temp.  Minimum    Maximum
01:00  1024.0   0.0   0.0kmh  135 ( SE)    0%  0.0mm    3.8   3.9@00:59  5.3@00:05
02:00  1024.0   0.1   6.5kmh  135 ( SE)    0%  0.0mm    3.8   3.5@01:57  5.0@01:30
03:00  1024.0   0.3   7.9kmh  109 (ESE)    0%  0.0mm    4.5   3.8@02:00  4.8@02:17
04:00  1023.0   0.1   6.5kmh  108 (ESE)    0%  0.0mm    4.2   4.1@03:55  4.6@03:06
05:00  1023.0   0.5   7.2kmh  145 ( SE)    0%  0.0mm    4.6   4.2@04:00  4.5@04:54
06:00  1023.0   0.0   5.0kmh  146 ( SE)    0%  0.0mm    4.4   4.5@05:09  4.7@05:14
07:00  1024.0   0.6   6.5kmh   72 (ENE)    0%  0.2mm    4.3   4.3@06:44  4.5@06:05
08:00  1025.0   1.4   9.4kmh  111 (ESE)    0%  0.0mm    4.3   4.2@07:16  4.5@07:44
09:00  1025.0   2.1   9.4kmh  110 (ESE)    0%  0.0mm    4.9   4.2@08:23  4.9@08:46
10:00  1026.0   2.9   9.4kmh  149 (SSE)    0%  0.0mm    5.5   4.9@09:00  6.0@09:37
11:00  1025.0   2.5   9.4kmh   91 ( E )    0%  0.0mm    7.4   5.5@10:00  7.3@10:59
12:00  1024.0   3.4  13.3kmh  341 (NNW)    0%  0.0mm   10.9   7.0@11:08 10.9@11:59
13:00  1023.0   4.9  13.3kmh   44 ( NE)    0%  0.0mm   12.3  10.9@12:00 13.0@12:51
14:00  1022.0   8.8  17.6kmh   34 ( NE)    0%  0.0mm   13.4  12.2@13:01 13.5@13:18
15:00  1021.0   9.3  18.0kmh   35 ( NE)    0%  0.0mm   14.7  12.4@14:26 16.1@14:11
16:00  1020.0  10.9  18.0kmh   40 ( NE)    0%  0.0mm   11.7  11.6@15:43 14.7@15:00
17:00  1020.0   9.1  14.8kmh   39 ( NE)    0%  0.0mm   10.5  10.5@16:57 11.7@16:00
18:00  1020.0   9.4  13.3kmh   45 ( NE)    0%  0.0mm    9.5   9.5@17:53 10.5@17:00
19:00  1020.0   6.9  11.2kmh   38 ( NE)    0%  0.0mm    8.7   8.4@18:33  9.6@18:01
20:00  1020.0  10.4  14.8kmh   26 (NNE)    0%  0.0mm    8.9   8.7@19:00  9.4@19:14
21:00  1021.0   7.7  13.3kmh   30 (NNE)    0%  0.0mm    8.8   8.7@20:16  8.9@20:00
22:00  1019.0  13.1  20.2kmh   14 (NNE)    0%  0.0mm    8.7   8.6@21:51  9.2@21:11
23:00  1018.0  17.1  26.3kmh   36 ( NE)    0%  0.0mm    8.4   8.4@22:42  8.7@22:00
00:00  1019.0   9.3  18.7kmh   42 ( NE)    0%  1.0mm    7.1   7.0@23:54  8.5@23:11